sensor_id;sensor_type;location;lat;lon;timestamp;pressure;altitude;pressure_sealevel;temperature;humidity
25526;BME280;13424;48.424;11.258;2023-10-31T00:02:09;94095.75;;;13.40;91.26
25526;BME280;13424;48.424;11.258;2023-10-31T00:04:35;94093.28;;;13.44;90.72
25526;BME280;13424;48.424;11.258;2023-10-31T00:07:01;94103.22;;;13.57;90.29
25526;BME280;13424;48.424;11.258;2023-10-31T00:09:27;94103.31;;;13.52;90.30
25526;BME280;13424;48.424;11.258;2023-10-31T00:11:53;94091.69;;;13.43;90.74
25526;BME280;13424;48.424;11.258;2023-10-31T00:14:19;94106.16;;;13.42;90.26
25526;BME280;13424;48.424;11.258;2023-10-31T00:16:45;94107.22;;;13.74;89.53
25526;BME280;13424;48.424;11.258;2023-10-31T00:19:11;94102.19;;;13.39;90.55
25526;BME280;13424;48.424;11.258;2023-10-31T00:21:37;94104.78;;;13.45;89.98
25526;BME280;13424;48.424;11.258;2023-10-31T00:24:03;94112.31;;;13.43;90.99
25526;BME280;13424;48.424;11.258;2023-10-31T00:26:29;94113.94;;;13.57;90.13
25526;BME280;13424;48.424;11.258;2023-10-31T00:28:55;94113.53;;;13.83;88.69
25526;BME280;13424;48.424;11.258;2023-10-31T00:31:22;94114.47;;;13.59;89.61
25526;BME280;13424;48.424;11.258;2023-10-31T00:33:49;94118.19;;;13.58;89.50
25526;BME280;13424;48.424;11.258;2023-10-31T00:36:16;94124.44;;;13.21;91.82
25526;BME280;13424;48.424;11.258;2023-10-31T00:38:42;94124.56;;;13.62;89.93
25526;BME280;13424;48.424;11.258;2023-10-31T00:41:08;94126.34;;;13.34;90.76
25526;BME280;13424;48.424;11.258;2023-10-31T00:43:34;94138.44;;;13.32;90.62
25526;BME280;13424;48.424;11.258;2023-10-31T00:46:03;94138.75;;;13.11;91.78
25526;BME280;13424;48.424;11.258;2023-10-31T00:48:30;94139.94;;;13.19;90.69
25526;BME280;13424;48.424;11.258;2023-10-31T00:51:04;94148.28;;;13.18;90.67
25526;BME280;13424;48.424;11.258;2023-10-31T00:53:32;94141.19;;;13.27;89.77
25526;BME280;13424;48.424;11.258;2023-10-31T00:55:58;94148.00;;;13.38;89.62
25526;BME280;13424;48.424;11.258;2023-10-31T00:58:24;94148.16;;;13.28;89.40
25526;BME280;13424;48.424;11.258;2023-10-31T01:00:53;94152.47;;;12.86;90.89
25526;BME280;13424;48.424;11.258;2023-10-31T01:03:19;94151.81;;;12.94;90.98
25526;BME280;13424;48.424;11.258;2023-10-31T01:05:45;94151.75;;;12.99;90.14
25526;BME280;13424;48.424;11.258;2023-10-31T01:08:11;94149.13;;;12.94;90.90
25526;BME280;13424;48.424;11.258;2023-10-31T01:10:37;94147.59;;;12.69;90.92
25526;BME280;13424;48.424;11.258;2023-10-31T01:13:03;94158.09;;;12.66;91.17
25526;BME280;13424;48.424;11.258;2023-10-31T01:15:29;94152.78;;;13.03;89.80
25526;BME280;13424;48.424;11.258;2023-10-31T01:17:55;94138.25;;;13.28;88.75
25526;BME280;13424;48.424;11.258;2023-10-31T01:24:48;94158.69;;;12.81;90.15
25526;BME280;13424;48.424;11.258;2023-10-31T01:27:14;94162.81;;;12.74;90.38
25526;BME280;13424;48.424;11.258;2023-10-31T01:29:41;94155.06;;;12.91;89.43
25526;BME280;13424;48.424;11.258;2023-10-31T01:32:07;94160.72;;;12.90;89.33
25526;BME280;13424;48.424;11.258;2023-10-31T01:34:33;94169.34;;;13.05;88.73
25526;BME280;13424;48.424;11.258;2023-10-31T01:36:59;94166.38;;;12.88;90.01
25526;BME280;13424;48.424;11.258;2023-10-31T01:39:25;94169.97;;;12.97;89.86
25526;BME280;13424;48.424;11.258;2023-10-31T01:41:51;94163.16;;;12.86;89.31
25526;BME280;13424;48.424;11.258;2023-10-31T01:44:18;94166.28;;;12.93;89.65
25526;BME280;13424;48.424;11.258;2023-10-31T01:46:44;94170.16;;;13.25;88.58
25526;BME280;13424;48.424;11.258;2023-10-31T01:49:10;94163.59;;;12.93;89.40
25526;BME280;13424;48.424;11.258;2023-10-31T01:51:36;94167.31;;;12.97;89.22
25526;BME280;13424;48.424;11.258;2023-10-31T01:54:04;94162.53;;;13.13;88.38
25526;BME280;13424;48.424;11.258;2023-10-31T01:56:30;94165.03;;;13.28;87.90
25526;BME280;13424;48.424;11.258;2023-10-31T01:58:57;94157.31;;;13.40;86.85
25526;BME280;13424;48.424;11.258;2023-10-31T02:01:23;94165.91;;;13.19;87.55
25526;BME280;13424;48.424;11.258;2023-10-31T02:03:49;94167.31;;;13.16;87.91
25526;BME280;13424;48.424;11.258;2023-10-31T02:06:16;94174.53;;;12.97;88.50
25526;BME280;13424;48.424;11.258;2023-10-31T02:08:42;94184.50;;;13.10;88.11
25526;BME280;13424;48.424;11.258;2023-10-31T02:11:08;94177.25;;;12.73;88.63
25526;BME280;13424;48.424;11.258;2023-10-31T02:13:36;94176.78;;;13.08;88.13
25526;BME280;13424;48.424;11.258;2023-10-31T02:16:03;94175.91;;;12.94;88.33
25526;BME280;13424;48.424;11.258;2023-10-31T02:18:29;94185.84;;;12.70;90.04
25526;BME280;13424;48.424;11.258;2023-10-31T02:20:55;94192.31;;;12.64;89.93
25526;BME280;13424;48.424;11.258;2023-10-31T02:23:21;94184.22;;;12.93;88.95
25526;BME280;13424;48.424;11.258;2023-10-31T02:25:47;94195.63;;;12.79;89.85
25526;BME280;13424;48.424;11.258;2023-10-31T02:28:13;94194.75;;;12.65;89.65
25526;BME280;13424;48.424;11.258;2023-10-31T02:30:45;94198.44;;;12.45;91.42
25526;BME280;13424;48.424;11.258;2023-10-31T02:33:11;94185.97;;;12.60;90.67
25526;BME280;13424;48.424;11.258;2023-10-31T02:35:37;94184.22;;;12.50;90.40
25526;BME280;13424;48.424;11.258;2023-10-31T02:38:03;94192.69;;;12.57;90.64
25526;BME280;13424;48.424;11.258;2023-10-31T02:40:29;94184.84;;;12.66;90.28
25526;BME280;13424;48.424;11.258;2023-10-31T02:42:55;94193.31;;;12.25;91.27
25526;BME280;13424;48.424;11.258;2023-10-31T02:45:21;94199.06;;;12.37;91.88
25526;BME280;13424;48.424;11.258;2023-10-31T02:47:47;94197.59;;;12.50;90.97
25526;BME280;13424;48.424;11.258;2023-10-31T02:50:13;94207.59;;;12.39;91.51
25526;BME280;13424;48.424;11.258;2023-10-31T02:52:39;94204.66;;;12.65;90.90
25526;BME280;13424;48.424;11.258;2023-10-31T02:55:11;94213.47;;;12.65;90.13
25526;BME280;13424;48.424;11.258;2023-10-31T02:57:37;94216.63;;;12.91;89.74
25526;BME280;13424;48.424;11.258;2023-10-31T03:00:04;94226.66;;;12.80;89.62
25526;BME280;13424;48.424;11.258;2023-10-31T03:02:30;94230.69;;;12.78;90.04
25526;BME280;13424;48.424;11.258;2023-10-31T03:04:56;94213.84;;;12.77;89.34
25526;BME280;13424;48.424;11.258;2023-10-31T03:07:22;94205.94;;;12.43;90.92
25526;BME280;13424;48.424;11.258;2023-10-31T03:09:49;94212.75;;;12.54;90.55
25526;BME280;13424;48.424;11.258;2023-10-31T03:12:14;94209.41;;;12.68;90.15
25526;BME280;13424;48.424;11.258;2023-10-31T03:14:41;94211.00;;;12.45;91.01
25526;BME280;13424;48.424;11.258;2023-10-31T03:17:07;94218.88;;;12.60;90.15
25526;BME280;13424;48.424;11.258;2023-10-31T03:19:33;94226.09;;;12.60;89.93
25526;BME280;13424;48.424;11.258;2023-10-31T03:21:59;94226.75;;;12.46;91.08
25526;BME280;13424;48.424;11.258;2023-10-31T03:24:25;94238.72;;;12.54;90.50
25526;BME280;13424;48.424;11.258;2023-10-31T03:26:54;94231.47;;;12.54;90.52
25526;BME280;13424;48.424;11.258;2023-10-31T03:29:21;94231.44;;;12.60;89.56
25526;BME280;13424;48.424;11.258;2023-10-31T03:31:47;94230.22;;;12.71;89.42
25526;BME280;13424;48.424;11.258;2023-10-31T03:34:13;94223.06;;;12.66;89.49
25526;BME280;13424;48.424;11.258;2023-10-31T03:36:38;94229.69;;;12.74;88.96
25526;BME280;13424;48.424;11.258;2023-10-31T03:39:04;94256.75;;;12.67;89.62
25526;BME280;13424;48.424;11.258;2023-10-31T03:41:30;94258.84;;;12.70;88.90
25526;BME280;13424;48.424;11.258;2023-10-31T03:43:58;94253.63;;;12.60;89.42
25526;BME280;13424;48.424;11.258;2023-10-31T03:47:26;94250.75;;;12.56;89.53
25526;BME280;13424;48.424;11.258;2023-10-31T03:49:52;94249.56;;;12.86;88.12
25526;BME280;13424;48.424;11.258;2023-10-31T03:52:19;94248.00;;;12.62;89.11
25526;BME280;13424;48.424;11.258;2023-10-31T03:54:45;94242.88;;;12.41;90.12
25526;BME280;13424;48.424;11.258;2023-10-31T03:57:11;94246.13;;;12.62;89.66
25526;BME280;13424;48.424;11.258;2023-10-31T03:59:38;94245.41;;;12.56;89.75
25526;BME280;13424;48.424;11.258;2023-10-31T04:02:05;94246.06;;;12.43;89.98
25526;BME280;13424;48.424;11.258;2023-10-31T04:04:32;94246.81;;;12.73;88.69
25526;BME280;13424;48.424;11.258;2023-10-31T04:06:58;94250.91;;;12.89;87.83
25526;BME280;13424;48.424;11.258;2023-10-31T04:09:24;94265.53;;;12.97;87.47
25526;BME280;13424;48.424;11.258;2023-10-31T04:11:50;94269.72;;;12.79;88.19
25526;BME280;13424;48.424;11.258;2023-10-31T04:14:16;94271.75;;;13.11;87.07
25526;BME280;13424;48.424;11.258;2023-10-31T04:16:42;94267.13;;;12.74;88.23
25526;BME280;13424;48.424;11.258;2023-10-31T04:19:14;94266.97;;;12.65;88.18
25526;BME280;13424;48.424;11.258;2023-10-31T04:21:40;94272.47;;;12.74;88.75
25526;BME280;13424;48.424;11.258;2023-10-31T04:24:07;94277.16;;;12.34;89.70
25526;BME280;13424;48.424;11.258;2023-10-31T04:26:33;94278.44;;;12.90;87.51
25526;BME280;13424;48.424;11.258;2023-10-31T04:28:59;94281.41;;;12.64;88.42
25526;BME280;13424;48.424;11.258;2023-10-31T04:31:25;94279.91;;;13.25;86.22
25526;BME280;13424;48.424;11.258;2023-10-31T04:33:51;94281.34;;;12.93;87.48
25526;BME280;13424;48.424;11.258;2023-10-31T04:36:17;94285.16;;;12.87;87.07
25526;BME280;13424;48.424;11.258;2023-10-31T04:38:43;94281.50;;;13.02;87.13
25526;BME280;13424;48.424;11.258;2023-10-31T04:41:09;94282.56;;;12.82;87.60
25526;BME280;13424;48.424;11.258;2023-10-31T04:43:35;94286.06;;;13.01;87.08
25526;BME280;13424;48.424;11.258;2023-10-31T04:46:01;94288.66;;;12.88;87.41
25526;BME280;13424;48.424;11.258;2023-10-31T04:48:27;94293.53;;;13.04;86.60
25526;BME280;13424;48.424;11.258;2023-10-31T04:50:53;94288.78;;;13.44;85.33
25526;BME280;13424;48.424;11.258;2023-10-31T04:53:19;94288.38;;;13.32;85.25
25526;BME280;13424;48.424;11.258;2023-10-31T04:55:45;94296.56;;;13.22;85.16
25526;BME280;13424;48.424;11.258;2023-10-31T04:58:11;94294.19;;;13.39;85.09
25526;BME280;13424;48.424;11.258;2023-10-31T05:00:37;94296.47;;;13.27;85.02
25526;BME280;13424;48.424;11.258;2023-10-31T05:03:03;94295.69;;;13.02;85.64
25526;BME280;13424;48.424;11.258;2023-10-31T05:05:29;94290.88;;;13.28;85.45
25526;BME280;13424;48.424;11.258;2023-10-31T05:07:55;94294.03;;;13.49;84.18
25526;BME280;13424;48.424;11.258;2023-10-31T05:10:21;94298.19;;;13.18;85.03
25526;BME280;13424;48.424;11.258;2023-10-31T05:12:46;94294.88;;;13.26;84.87
25526;BME280;13424;48.424;11.258;2023-10-31T05:15:12;94287.00;;;13.10;85.71
25526;BME280;13424;48.424;11.258;2023-10-31T05:17:44;94299.34;;;13.11;85.20
25526;BME280;13424;48.424;11.258;2023-10-31T05:20:11;94296.47;;;13.03;85.68
25526;BME280;13424;48.424;11.258;2023-10-31T05:22:37;94304.25;;;12.80;86.14
25526;BME280;13424;48.424;11.258;2023-10-31T05:25:03;94301.47;;;12.62;87.28
25526;BME280;13424;48.424;11.258;2023-10-31T05:28:17;94302.91;;;12.78;86.45
25526;BME280;13424;48.424;11.258;2023-10-31T05:30:43;94310.47;;;12.71;86.62
25526;BME280;13424;48.424;11.258;2023-10-31T05:33:43;94306.69;;;12.77;86.37
25526;BME280;13424;48.424;11.258;2023-10-31T05:36:20;94311.63;;;12.65;85.47
25526;BME280;13424;48.424;11.258;2023-10-31T05:38:46;94313.31;;;12.55;86.39
25526;BME280;13424;48.424;11.258;2023-10-31T05:41:14;94314.47;;;12.49;85.74
25526;BME280;13424;48.424;11.258;2023-10-31T05:43:40;94314.19;;;12.75;85.04
25526;BME280;13424;48.424;11.258;2023-10-31T05:46:06;94320.81;;;12.53;85.94
25526;BME280;13424;48.424;11.258;2023-10-31T05:48:38;94320.53;;;12.26;87.70
25526;BME280;13424;48.424;11.258;2023-10-31T05:51:25;94326.69;;;12.55;85.77
25526;BME280;13424;48.424;11.258;2023-10-31T05:53:52;94332.63;;;12.47;85.93
25526;BME280;13424;48.424;11.258;2023-10-31T05:56:18;94330.03;;;12.42;86.33
25526;BME280;13424;48.424;11.258;2023-10-31T05:58:44;94330.06;;;12.37;86.21
25526;BME280;13424;48.424;11.258;2023-10-31T06:01:10;94344.53;;;12.31;85.96
25526;BME280;13424;48.424;11.258;2023-10-31T06:03:37;94361.53;;;12.45;85.18
25526;BME280;13424;48.424;11.258;2023-10-31T06:06:03;94358.94;;;12.40;85.86
25526;BME280;13424;48.424;11.258;2023-10-31T06:08:29;94361.63;;;12.35;87.10
25526;BME280;13424;48.424;11.258;2023-10-31T06:10:57;94373.84;;;12.46;86.12
25526;BME280;13424;48.424;11.258;2023-10-31T06:13:24;94381.25;;;12.54;85.28
25526;BME280;13424;48.424;11.258;2023-10-31T06:15:56;94376.56;;;12.41;85.47
25526;BME280;13424;48.424;11.258;2023-10-31T06:18:23;94383.03;;;12.35;85.78
25526;BME280;13424;48.424;11.258;2023-10-31T06:20:49;94386.91;;;12.14;86.55
25526;BME280;13424;48.424;11.258;2023-10-31T06:23:15;94386.28;;;12.27;85.81
25526;BME280;13424;48.424;11.258;2023-10-31T06:25:41;94383.31;;;12.34;85.23
25526;BME280;13424;48.424;11.258;2023-10-31T06:28:07;94393.91;;;12.10;85.87
25526;BME280;13424;48.424;11.258;2023-10-31T06:30:36;94392.34;;;12.04;85.83
25526;BME280;13424;48.424;11.258;2023-10-31T06:33:02;94396.63;;;11.99;86.31
25526;BME280;13424;48.424;11.258;2023-10-31T06:35:28;94389.75;;;11.88;85.94
25526;BME280;13424;48.424;11.258;2023-10-31T06:37:56;94401.16;;;12.38;84.87
25526;BME280;13424;48.424;11.258;2023-10-31T06:40:25;94409.59;;;12.16;85.93
25526;BME280;13424;48.424;11.258;2023-10-31T06:42:51;94403.13;;;11.83;86.05
25526;BME280;13424;48.424;11.258;2023-10-31T06:45:17;94411.47;;;12.16;85.37
25526;BME280;13424;48.424;11.258;2023-10-31T06:47:43;94410.38;;;12.22;85.06
25526;BME280;13424;48.424;11.258;2023-10-31T06:50:09;94413.75;;;12.38;84.46
25526;BME280;13424;48.424;11.258;2023-10-31T06:52:36;94418.38;;;12.27;85.10
25526;BME280;13424;48.424;11.258;2023-10-31T06:55:02;94412.72;;;12.34;83.98
25526;BME280;13424;48.424;11.258;2023-10-31T06:57:28;94421.25;;;12.36;84.59
25526;BME280;13424;48.424;11.258;2023-10-31T06:59:54;94417.84;;;12.59;83.59
25526;BME280;13424;48.424;11.258;2023-10-31T07:02:20;94422.53;;;12.43;84.16
25526;BME280;13424;48.424;11.258;2023-10-31T07:04:46;94424.50;;;12.27;84.74
25526;BME280;13424;48.424;11.258;2023-10-31T07:07:12;94439.16;;;12.40;83.97
25526;BME280;13424;48.424;11.258;2023-10-31T07:09:38;94450.28;;;12.47;83.46
25526;BME280;13424;48.424;11.258;2023-10-31T07:16:06;94449.66;;;12.61;83.26
25526;BME280;13424;48.424;11.258;2023-10-31T07:18:32;94448.69;;;12.46;84.21
25526;BME280;13424;48.424;11.258;2023-10-31T07:20:58;94452.53;;;12.69;82.60
25526;BME280;13424;48.424;11.258;2023-10-31T07:23:24;94454.94;;;12.71;82.18
25526;BME280;13424;48.424;11.258;2023-10-31T07:25:50;94457.56;;;12.76;82.50
25526;BME280;13424;48.424;11.258;2023-10-31T07:28:16;94471.63;;;12.57;82.83
25526;BME280;13424;48.424;11.258;2023-10-31T07:30:43;94466.63;;;12.46;83.20
25526;BME280;13424;48.424;11.258;2023-10-31T07:33:08;94471.25;;;12.35;84.10
25526;BME280;13424;48.424;11.258;2023-10-31T07:35:34;94475.91;;;12.14;84.47
25526;BME280;13424;48.424;11.258;2023-10-31T07:38:00;94473.41;;;12.33;84.70
25526;BME280;13424;48.424;11.258;2023-10-31T07:40:26;94473.34;;;12.38;84.82
25526;BME280;13424;48.424;11.258;2023-10-31T07:42:52;94475.75;;;12.40;83.49
25526;BME280;13424;48.424;11.258;2023-10-31T07:45:18;94468.47;;;12.11;85.47
25526;BME280;13424;48.424;11.258;2023-10-31T07:47:44;94465.50;;;12.13;85.84
25526;BME280;13424;48.424;11.258;2023-10-31T07:50:10;94466.38;;;12.03;85.95
25526;BME280;13424;48.424;11.258;2023-10-31T07:52:36;94461.63;;;11.80;86.99
25526;BME280;13424;48.424;11.258;2023-10-31T07:55:02;94461.94;;;11.68;87.84
25526;BME280;13424;48.424;11.258;2023-10-31T07:57:28;94457.41;;;12.28;85.98
25526;BME280;13424;48.424;11.258;2023-10-31T07:59:54;94456.81;;;12.31;85.52
25526;BME280;13424;48.424;11.258;2023-10-31T08:02:20;94457.22;;;12.53;84.79
25526;BME280;13424;48.424;11.258;2023-10-31T08:04:46;94468.41;;;12.55;84.62
25526;BME280;13424;48.424;11.258;2023-10-31T08:07:12;94471.28;;;13.03;83.22
25526;BME280;13424;48.424;11.258;2023-10-31T08:09:38;94479.44;;;12.88;82.75
25526;BME280;13424;48.424;11.258;2023-10-31T08:12:04;94470.53;;;13.51;81.80
25526;BME280;13424;48.424;11.258;2023-10-31T08:14:30;94468.59;;;13.56;81.23
25526;BME280;13424;48.424;11.258;2023-10-31T08:16:56;94467.84;;;13.51;80.19
25526;BME280;13424;48.424;11.258;2023-10-31T08:19:22;94473.13;;;13.61;79.15
25526;BME280;13424;48.424;11.258;2023-10-31T08:21:48;94460.44;;;13.66;78.82
25526;BME280;13424;48.424;11.258;2023-10-31T08:24:15;94455.38;;;13.41;80.23
25526;BME280;13424;48.424;11.258;2023-10-31T08:26:40;94454.59;;;13.11;80.37
25526;BME280;13424;48.424;11.258;2023-10-31T08:29:06;94451.59;;;13.42;79.53
25526;BME280;13424;48.424;11.258;2023-10-31T08:31:32;94464.53;;;12.77;80.41
25526;BME280;13424;48.424;11.258;2023-10-31T08:33:58;94460.69;;;12.88;80.24
25526;BME280;13424;48.424;11.258;2023-10-31T08:36:24;94470.09;;;13.14;79.00
25526;BME280;13424;48.424;11.258;2023-10-31T08:38:50;94479.03;;;13.00;79.38
25526;BME280;13424;48.424;11.258;2023-10-31T08:41:16;94483.53;;;13.38;78.64
25526;BME280;13424;48.424;11.258;2023-10-31T08:43:46;94484.56;;;13.13;79.10
25526;BME280;13424;48.424;11.258;2023-10-31T08:46:12;94477.13;;;13.05;78.96
25526;BME280;13424;48.424;11.258;2023-10-31T08:48:39;94488.72;;;13.30;78.37
25526;BME280;13424;48.424;11.258;2023-10-31T08:51:05;94488.19;;;13.28;78.11
25526;BME280;13424;48.424;11.258;2023-10-31T08:53:31;94487.75;;;13.16;77.48
25526;BME280;13424;48.424;11.258;2023-10-31T08:55:57;94506.31;;;13.36;78.76
25526;BME280;13424;48.424;11.258;2023-10-31T08:58:23;94527.22;;;13.34;78.63
25526;BME280;13424;48.424;11.258;2023-10-31T09:00:49;94532.53;;;13.68;76.94
25526;BME280;13424;48.424;11.258;2023-10-31T09:03:15;94551.09;;;13.59;76.94
25526;BME280;13424;48.424;11.258;2023-10-31T09:05:41;94568.22;;;13.87;75.74
25526;BME280;13424;48.424;11.258;2023-10-31T09:08:07;94578.91;;;13.63;75.21
25526;BME280;13424;48.424;11.258;2023-10-31T09:10:37;94584.88;;;13.84;75.99
25526;BME280;13424;48.424;11.258;2023-10-31T09:13:04;94596.53;;;13.69;74.93
25526;BME280;13424;48.424;11.258;2023-10-31T09:15:30;94597.94;;;13.62;75.43
25526;BME280;13424;48.424;11.258;2023-10-31T09:17:56;94598.22;;;13.31;75.40
25526;BME280;13424;48.424;11.258;2023-10-31T09:20:22;94599.88;;;13.27;75.08
25526;BME280;13424;48.424;11.258;2023-10-31T09:22:48;94603.38;;;13.18;75.86
25526;BME280;13424;48.424;11.258;2023-10-31T09:25:14;94612.97;;;13.29;76.93
25526;BME280;13424;48.424;11.258;2023-10-31T09:27:41;94605.25;;;13.22;75.58
25526;BME280;13424;48.424;11.258;2023-10-31T09:30:08;94606.53;;;13.30;75.70
25526;BME280;13424;48.424;11.258;2023-10-31T09:32:34;94610.03;;;13.59;75.15
25526;BME280;13424;48.424;11.258;2023-10-31T09:35:00;94620.16;;;13.62;75.40
25526;BME280;13424;48.424;11.258;2023-10-31T09:37:26;94617.56;;;14.10;74.86
25526;BME280;13424;48.424;11.258;2023-10-31T09:39:52;94615.09;;;13.61;74.19
25526;BME280;13424;48.424;11.258;2023-10-31T09:42:18;94618.03;;;13.88;74.42
25526;BME280;13424;48.424;11.258;2023-10-31T09:44:44;94612.34;;;13.95;74.65
25526;BME280;13424;48.424;11.258;2023-10-31T09:47:10;94610.72;;;13.70;73.85
25526;BME280;13424;48.424;11.258;2023-10-31T09:49:37;94614.50;;;13.69;74.90
25526;BME280;13424;48.424;11.258;2023-10-31T09:52:03;94619.19;;;13.53;75.22
25526;BME280;13424;48.424;11.258;2023-10-31T09:54:30;94613.69;;;13.68;74.67
25526;BME280;13424;48.424;11.258;2023-10-31T09:56:56;94615.16;;;13.51;75.76
25526;BME280;13424;48.424;11.258;2023-10-31T09:59:22;94621.66;;;13.74;75.60
25526;BME280;13424;48.424;11.258;2023-10-31T10:01:48;94621.53;;;13.60;74.18
25526;BME280;13424;48.424;11.258;2023-10-31T10:04:14;94619.88;;;13.93;75.03
25526;BME280;13424;48.424;11.258;2023-10-31T10:07:02;94622.63;;;14.12;74.29
25526;BME280;13424;48.424;11.258;2023-10-31T10:09:29;94624.97;;;14.18;74.26
25526;BME280;13424;48.424;11.258;2023-10-31T10:11:57;94620.34;;;14.00;73.58
25526;BME280;13424;48.424;11.258;2023-10-31T10:14:24;94617.22;;;13.93;73.53
25526;BME280;13424;48.424;11.258;2023-10-31T10:16:50;94617.94;;;13.75;74.66
25526;BME280;13424;48.424;11.258;2023-10-31T10:19:21;94613.69;;;13.68;74.83
25526;BME280;13424;48.424;11.258;2023-10-31T10:21:53;94614.41;;;14.27;73.07
25526;BME280;13424;48.424;11.258;2023-10-31T10:28:07;94609.66;;;14.48;73.45
25526;BME280;13424;48.424;11.258;2023-10-31T10:30:38;94618.22;;;14.45;72.99
25526;BME280;13424;48.424;11.258;2023-10-31T10:33:04;94616.25;;;14.56;72.29
25526;BME280;13424;48.424;11.258;2023-10-31T10:35:30;94614.19;;;14.23;72.41
25526;BME280;13424;48.424;11.258;2023-10-31T10:37:56;94633.53;;;14.20;73.19
25526;BME280;13424;48.424;11.258;2023-10-31T10:40:25;94640.09;;;14.33;73.19
25526;BME280;13424;48.424;11.258;2023-10-31T10:42:54;94647.84;;;14.35;72.37
25526;BME280;13424;48.424;11.258;2023-10-31T10:45:25;94636.94;;;14.55;71.99
25526;BME280;13424;48.424;11.258;2023-10-31T10:47:52;94642.25;;;14.07;71.45
25526;BME280;13424;48.424;11.258;2023-10-31T10:50:21;94633.94;;;14.57;72.06
25526;BME280;13424;48.424;11.258;2023-10-31T10:53:10;94637.38;;;15.00;71.59
25526;BME280;13424;48.424;11.258;2023-10-31T10:55:46;94638.28;;;14.95;69.94
25526;BME280;13424;48.424;11.258;2023-10-31T10:58:47;94643.72;;;15.28;70.10
25526;BME280;13424;48.424;11.258;2023-10-31T11:01:16;94635.06;;;15.31;70.86
25526;BME280;13424;48.424;11.258;2023-10-31T11:03:46;94633.97;;;15.51;70.23
25526;BME280;13424;48.424;11.258;2023-10-31T11:06:13;94634.28;;;15.96;68.42
25526;BME280;13424;48.424;11.258;2023-10-31T11:08:40;94628.19;;;15.76;67.85
25526;BME280;13424;48.424;11.258;2023-10-31T11:11:07;94641.28;;;15.97;69.78
25526;BME280;13424;48.424;11.258;2023-10-31T11:13:33;94634.06;;;15.27;69.62
25526;BME280;13424;48.424;11.258;2023-10-31T11:16:49;94646.09;;;15.67;67.53
25526;BME280;13424;48.424;11.258;2023-10-31T11:19:17;94638.88;;;15.62;69.40
25526;BME280;13424;48.424;11.258;2023-10-31T11:22:00;94640.06;;;15.56;68.45
25526;BME280;13424;48.424;11.258;2023-10-31T11:24:36;94643.78;;;15.23;68.30
25526;BME280;13424;48.424;11.258;2023-10-31T11:27:06;94651.16;;;15.50;68.10
25526;BME280;13424;48.424;11.258;2023-10-31T11:30:04;94643.47;;;15.62;68.78
25526;BME280;13424;48.424;11.258;2023-10-31T11:32:32;94646.03;;;15.34;68.17
25526;BME280;13424;48.424;11.258;2023-10-31T11:34:59;94644.72;;;15.13;68.12
25526;BME280;13424;48.424;11.258;2023-10-31T11:37:33;94645.03;;;15.12;68.46
25526;BME280;13424;48.424;11.258;2023-10-31T11:40:14;94635.28;;;14.97;68.56
25526;BME280;13424;48.424;11.258;2023-10-31T11:42:50;94639.28;;;15.18;69.17
25526;BME280;13424;48.424;11.258;2023-10-31T11:45:48;94636.94;;;14.93;71.00
25526;BME280;13424;48.424;11.258;2023-10-31T11:48:17;94634.88;;;15.60;68.89
25526;BME280;13424;48.424;11.258;2023-10-31T11:50:43;94636.09;;;14.97;69.06
25526;BME280;13424;48.424;11.258;2023-10-31T11:53:14;94640.53;;;15.26;69.47
25526;BME280;13424;48.424;11.258;2023-10-31T11:55:48;94641.03;;;15.28;68.28
25526;BME280;13424;48.424;11.258;2023-10-31T11:58:24;94644.44;;;15.15;68.22
25526;BME280;13424;48.424;11.258;2023-10-31T12:01:05;94631.69;;;15.58;67.48
25526;BME280;13424;48.424;11.258;2023-10-31T12:03:43;94628.59;;;15.83;67.98
25526;BME280;13424;48.424;11.258;2023-10-31T12:06:14;94619.22;;;15.67;66.92
25526;BME280;13424;48.424;11.258;2023-10-31T12:08:43;94621.63;;;15.50;66.75
25526;BME280;13424;48.424;11.258;2023-10-31T12:11:21;94624.91;;;15.60;67.08
25526;BME280;13424;48.424;11.258;2023-10-31T12:14:02;94624.41;;;15.77;66.57
25526;BME280;13424;48.424;11.258;2023-10-31T12:20:16;94626.00;;;15.27;67.42
25526;BME280;13424;48.424;11.258;2023-10-31T12:22:43;94634.63;;;15.24;67.15
25526;BME280;13424;48.424;11.258;2023-10-31T12:25:11;94632.59;;;15.16;68.04
25526;BME280;13424;48.424;11.258;2023-10-31T12:28:25;94622.31;;;15.04;68.26
25526;BME280;13424;48.424;11.258;2023-10-31T12:30:54;94629.31;;;15.38;69.03
25526;BME280;13424;48.424;11.258;2023-10-31T12:33:21;94624.97;;;15.23;69.09
25526;BME280;13424;48.424;11.258;2023-10-31T12:35:55;94619.72;;;15.50;68.39
25526;BME280;13424;48.424;11.258;2023-10-31T12:38:22;94631.03;;;15.47;67.55
25526;BME280;13424;48.424;11.258;2023-10-31T12:40:48;94628.66;;;15.46;68.57
25526;BME280;13424;48.424;11.258;2023-10-31T12:43:16;94629.38;;;15.51;68.22
25526;BME280;13424;48.424;11.258;2023-10-31T12:45:43;94632.16;;;15.27;68.46
25526;BME280;13424;48.424;11.258;2023-10-31T12:48:10;94636.00;;;15.21;68.88
25526;BME280;13424;48.424;11.258;2023-10-31T12:50:38;94626.44;;;14.96;68.76
25526;BME280;13424;48.424;11.258;2023-10-31T12:53:06;94629.88;;;15.02;67.62
25526;BME280;13424;48.424;11.258;2023-10-31T12:55:40;94634.16;;;15.03;67.53
25526;BME280;13424;48.424;11.258;2023-10-31T12:58:07;94631.66;;;15.06;67.88
25526;BME280;13424;48.424;11.258;2023-10-31T13:00:37;94633.47;;;15.11;68.50
25526;BME280;13424;48.424;11.258;2023-10-31T13:03:07;94638.03;;;15.29;68.81
25526;BME280;13424;48.424;11.258;2023-10-31T13:05:37;94632.59;;;14.97;68.19
25526;BME280;13424;48.424;11.258;2023-10-31T13:08:14;94642.97;;;15.41;69.48
25526;BME280;13424;48.424;11.258;2023-10-31T13:10:43;94649.75;;;15.01;69.91
25526;BME280;13424;48.424;11.258;2023-10-31T13:13:09;94641.88;;;15.23;69.51